createdAt,value
2018-01-14T00:02:00.188Z,12.03
2018-01-14T00:04:27.680Z,11.50
2018-01-14T00:06:55.527Z,11.37
2018-01-14T00:09:22.992Z,11.27
2018-01-14T00:11:51.807Z,12.53
2018-01-14T00:14:19.282Z,11.00
2018-01-14T00:16:46.825Z,12.17
2018-01-14T00:19:14.301Z,11.53
2018-01-14T00:21:41.757Z,10.60
2018-01-14T00:24:09.248Z,11.93
2018-01-14T00:26:36.761Z,11.77
2018-01-14T00:29:04.246Z,11.50
2018-01-14T00:31:31.710Z,11.47
2018-01-14T00:33:59.210Z,12.37
2018-01-14T00:36:26.707Z,11.90
2018-01-14T00:38:54.426Z,11.87
2018-01-14T00:41:21.902Z,11.30
2018-01-14T00:43:49.415Z,11.63
2018-01-14T00:46:16.898Z,11.83
2018-01-14T00:48:44.492Z,11.03
2018-01-14T00:51:12.325Z,10.57
2018-01-14T00:53:39.808Z,12.13
2018-01-14T00:56:07.299Z,11.57
2018-01-14T00:58:34.783Z,11.33
2018-01-14T01:01:02.262Z,10.80
2018-01-14T01:03:29.727Z,11.20
2018-01-14T01:05:57.219Z,12.23
2018-01-14T01:08:24.687Z,11.40
2018-01-14T01:10:52.191Z,11.60
2018-01-14T01:13:19.646Z,11.47
2018-01-14T01:15:47.162Z,11.30
2018-01-14T01:18:14.634Z,12.10
2018-01-14T01:20:42.338Z,11.20
2018-01-14T01:23:10.208Z,11.57
2018-01-14T01:25:37.675Z,12.23
2018-01-14T01:28:05.171Z,12.00
2018-01-14T01:30:33.461Z,12.80
2018-01-14T01:33:00.978Z,12.40
2018-01-14T01:35:28.474Z,11.93
2018-01-14T01:37:55.991Z,12.03
2018-01-14T01:40:23.495Z,12.40
2018-01-14T01:42:51.058Z,11.27
2018-01-14T01:45:18.583Z,12.17
2018-01-14T01:47:46.130Z,12.77
2018-01-14T01:50:13.643Z,12.63
2018-01-14T01:52:41.126Z,11.80
2018-01-14T01:55:08.627Z,11.90
2018-01-14T01:57:36.106Z,12.07
2018-01-14T02:00:03.616Z,12.00
2018-01-14T02:02:31.078Z,13.00
2018-01-14T02:04:58.598Z,12.87
2018-01-14T02:07:26.091Z,12.20
2018-01-14T02:09:53.582Z,12.03
2018-01-14T02:12:21.066Z,11.90
2018-01-14T02:14:48.706Z,12.63
2018-01-14T02:17:16.178Z,11.90
2018-01-14T02:19:43.643Z,12.40
2018-01-14T02:22:11.143Z,11.97
2018-01-14T02:24:38.839Z,12.07
2018-01-14T02:27:06.365Z,13.20
2018-01-14T02:29:33.868Z,12.07
2018-01-14T02:32:01.734Z,12.20
2018-01-14T02:34:29.223Z,12.10
2018-01-14T02:36:56.714Z,12.13
2018-01-14T02:39:24.199Z,12.00
2018-01-14T02:41:51.690Z,11.67
2018-01-14T02:44:19.167Z,12.77
2018-01-14T02:46:46.667Z,13.20
2018-01-14T02:49:14.144Z,11.97
2018-01-14T02:51:41.638Z,12.00
2018-01-14T02:54:09.149Z,12.10
2018-01-14T02:56:36.652Z,12.60
2018-01-14T02:59:04.500Z,13.20
2018-01-14T03:01:32.000Z,12.87
2018-01-14T03:03:59.526Z,12.67
2018-01-14T03:06:27.010Z,12.83
2018-01-14T03:08:54.527Z,12.53
2018-01-14T03:11:22.020Z,12.57
2018-01-14T03:13:49.506Z,12.90
2018-01-14T03:16:16.979Z,12.60
2018-01-14T03:18:44.489Z,12.80
2018-01-14T03:21:11.970Z,13.85
2018-01-14T03:23:39.635Z,13.40
2018-01-14T03:26:08.303Z,11.90
2018-01-14T03:28:36.003Z,12.60
2018-01-14T03:31:03.493Z,13.03
2018-01-14T03:33:30.972Z,11.50
2018-01-14T03:35:58.458Z,14.10
2018-01-14T03:38:25.939Z,12.43
2018-01-14T03:40:53.754Z,13.67
2018-01-14T03:43:21.221Z,13.50
2018-01-14T03:45:48.933Z,13.50
2018-01-14T03:48:16.435Z,13.07
2018-01-14T03:50:43.987Z,13.20
2018-01-14T03:53:11.462Z,12.90
2018-01-14T03:55:39.119Z,12.73
2018-01-14T03:58:06.591Z,13.00
2018-01-14T04:00:34.058Z,13.67
2018-01-14T04:03:01.636Z,13.10
2018-01-14T04:05:29.086Z,13.53
2018-01-14T04:07:56.613Z,13.03
2018-01-14T04:10:24.111Z,13.17
2018-01-14T04:12:51.643Z,13.20
2018-01-14T04:15:19.351Z,12.87
2018-01-14T04:17:46.852Z,13.17
2018-01-14T04:20:14.331Z,13.90
2018-01-14T04:22:41.826Z,11.90
2018-01-14T04:25:09.336Z,13.23
2018-01-14T04:27:36.864Z,13.43
2018-01-14T04:30:04.370Z,12.77
2018-01-14T04:32:31.866Z,13.57
2018-01-14T04:34:59.398Z,12.57
2018-01-14T04:37:26.967Z,13.70
2018-01-14T04:39:54.478Z,13.83
2018-01-14T04:42:21.974Z,12.40
2018-01-14T04:44:49.463Z,13.43
2018-01-14T04:47:16.995Z,13.67
2018-01-14T04:49:44.498Z,14.03
2018-01-14T04:52:11.982Z,13.17
2018-01-14T04:54:39.523Z,13.67
2018-01-14T04:57:07.036Z,12.93
2018-01-14T04:59:34.962Z,13.53
2018-01-14T05:02:02.458Z,13.50
2018-01-14T05:04:29.953Z,14.13
2018-01-14T05:06:57.478Z,13.63
2018-01-14T05:09:24.990Z,13.57
2018-01-14T05:11:52.495Z,14.57
2018-01-14T05:14:19.960Z,13.87
2018-01-14T05:16:47.479Z,14.30
2018-01-14T05:19:14.983Z,14.03
2018-01-14T05:21:42.631Z,14.10
2018-01-14T05:24:10.498Z,13.97
2018-01-14T05:26:38.003Z,14.20
2018-01-14T05:29:05.506Z,13.60
2018-01-14T05:31:33.016Z,13.20
2018-01-14T05:34:00.563Z,14.53
2018-01-14T05:36:28.115Z,13.93
2018-01-14T05:38:55.643Z,14.30
2018-01-14T05:41:23.179Z,14.67
2018-01-14T05:43:50.691Z,14.53
2018-01-14T05:46:18.232Z,13.53
2018-01-14T05:48:45.766Z,13.77
2018-01-14T05:51:13.235Z,14.10
2018-01-14T05:53:40.887Z,14.00
2018-01-14T05:56:08.363Z,13.97
2018-01-14T05:58:35.854Z,14.00
2018-01-14T06:01:03.381Z,14.50
2018-01-14T06:03:31.107Z,13.17
2018-01-14T06:05:58.649Z,13.67
2018-01-14T06:08:26.478Z,14.07
2018-01-14T06:10:53.966Z,14.47
2018-01-14T06:13:21.443Z,13.87
2018-01-14T06:15:48.941Z,13.80
2018-01-14T06:18:16.446Z,14.13
2018-01-14T06:20:44.002Z,14.53
2018-01-14T06:23:11.486Z,14.60
2018-01-14T06:25:39.010Z,14.50
2018-01-14T06:28:06.482Z,14.23
2018-01-14T06:30:33.974Z,13.67
2018-01-14T06:33:01.922Z,13.63
2018-01-14T06:35:29.411Z,14.13
2018-01-14T06:37:56.950Z,14.30
2018-01-14T06:40:24.443Z,13.83
2018-01-14T06:42:51.988Z,14.03
2018-01-14T06:45:19.502Z,13.20
2018-01-14T06:47:47.382Z,14.23
2018-01-14T06:50:14.855Z,13.90
2018-01-14T06:52:42.395Z,14.70
2018-01-14T06:55:09.878Z,13.77
2018-01-14T06:57:37.414Z,13.37
2018-01-14T07:00:04.899Z,14.03
2018-01-14T07:02:32.416Z,14.27
2018-01-14T07:04:59.934Z,14.13
2018-01-14T07:07:27.833Z,14.63
2018-01-14T07:09:55.322Z,14.43
2018-01-14T07:12:23.047Z,14.27
2018-01-14T07:14:50.542Z,14.37
2018-01-14T07:17:18.654Z,14.27
2018-01-14T07:19:46.133Z,14.67
2018-01-14T07:22:13.666Z,13.90
2018-01-14T07:24:41.150Z,13.90
2018-01-14T07:27:08.660Z,14.20
2018-01-14T07:29:36.145Z,14.23
2018-01-14T07:32:03.671Z,15.17
2018-01-14T07:34:31.135Z,13.57
2018-01-14T07:36:58.858Z,14.43
2018-01-14T07:39:26.725Z,13.70
2018-01-14T07:41:54.243Z,14.77
2018-01-14T07:44:21.742Z,14.57
2018-01-14T07:46:49.288Z,15.00
2018-01-14T07:49:16.775Z,14.63
2018-01-14T07:51:44.282Z,14.33
2018-01-14T07:54:11.787Z,14.07
2018-01-14T07:56:39.310Z,14.53
2018-01-14T07:59:06.811Z,14.03
2018-01-14T08:01:34.292Z,13.07
2018-01-14T08:04:02.043Z,14.37
2018-01-14T08:06:29.535Z,14.50
2018-01-14T08:08:57.024Z,13.20
2018-01-14T08:11:24.490Z,15.07
2018-01-14T08:13:51.990Z,13.97
2018-01-14T08:16:19.478Z,15.87
2018-01-14T08:18:47.202Z,15.20
2018-01-14T08:21:14.698Z,15.23
2018-01-14T08:23:42.222Z,15.03
2018-01-14T08:26:09.912Z,14.97
2018-01-14T08:28:37.434Z,14.97
2018-01-14T08:31:04.902Z,15.43
2018-01-14T08:33:32.418Z,15.43
2018-01-14T08:36:00.277Z,14.53
2018-01-14T08:38:27.735Z,15.90
2018-01-14T08:40:55.234Z,15.20
2018-01-14T08:43:22.731Z,15.67
2018-01-14T08:45:50.212Z,15.37
2018-01-14T08:48:17.699Z,14.63
2018-01-14T08:50:45.174Z,15.23
2018-01-14T08:53:12.675Z,14.93
2018-01-14T08:55:40.178Z,15.57
2018-01-14T08:58:07.708Z,16.40
2018-01-14T09:00:35.235Z,15.40
2018-01-14T09:03:02.812Z,16.80
2018-01-14T09:05:30.301Z,15.67
2018-01-14T09:07:57.798Z,16.23
2018-01-14T09:10:25.266Z,14.47
2018-01-14T09:12:52.978Z,15.93
2018-01-14T09:15:20.471Z,16.23
2018-01-14T09:17:48.119Z,15.67
2018-01-14T09:20:15.626Z,16.07
2018-01-14T09:22:43.098Z,16.37
2018-01-14T09:25:10.595Z,16.40
2018-01-14T09:27:38.063Z,16.13
2018-01-14T09:30:05.783Z,17.27
2018-01-14T09:32:33.263Z,17.67
2018-01-14T09:35:00.752Z,16.07
2018-01-14T09:37:28.226Z,16.67
2018-01-14T09:39:55.897Z,17.37
2018-01-14T09:42:23.376Z,16.20
2018-01-14T09:44:50.881Z,16.40
2018-01-14T09:47:18.351Z,16.63
2018-01-14T09:49:45.871Z,17.20
2018-01-14T09:52:13.334Z,17.47
2018-01-14T09:54:40.822Z,17.47
2018-01-14T09:57:08.286Z,17.80
2018-01-14T09:59:39.308Z,17.60
2018-01-14T10:02:06.789Z,16.17
2018-01-14T10:04:34.506Z,16.80
2018-01-14T10:07:02.032Z,16.13
2018-01-14T10:09:29.530Z,17.20
2018-01-14T10:11:57.261Z,17.47
2018-01-14T10:14:24.801Z,17.43
2018-01-14T10:16:52.283Z,16.27
2018-01-14T10:19:19.778Z,17.53
2018-01-14T10:21:47.254Z,15.70
2018-01-14T10:24:14.755Z,15.97
2018-01-14T10:26:42.233Z,18.40
2018-01-14T10:29:09.731Z,17.70
2018-01-14T10:31:37.721Z,17.07
2018-01-14T10:34:07.088Z,16.70
2018-01-14T10:36:34.608Z,18.53
2018-01-14T10:39:02.116Z,17.80
2018-01-14T10:41:29.644Z,18.60
2018-01-14T10:43:57.106Z,18.27
2018-01-14T10:46:25.462Z,18.60
2018-01-14T10:48:52.946Z,17.10
2018-01-14T10:51:20.666Z,17.87
2018-01-14T10:53:48.130Z,17.87
2018-01-14T10:56:15.622Z,17.10
2018-01-14T10:58:43.094Z,17.93
2018-01-14T11:01:11.772Z,17.50
2018-01-14T11:03:39.247Z,17.80
2018-01-14T11:06:07.274Z,16.73
2018-01-14T11:08:36.743Z,17.77
2018-01-14T11:11:04.226Z,17.27
2018-01-14T11:13:31.701Z,16.77
2018-01-14T11:15:59.278Z,15.53
2018-01-14T11:18:26.976Z,17.37
2018-01-14T11:20:54.480Z,18.83
2018-01-14T11:23:23.794Z,19.10
2018-01-14T11:25:52.434Z,18.17
2018-01-14T11:28:19.932Z,18.03
2018-01-14T11:30:47.430Z,17.97
2018-01-14T11:33:14.906Z,19.43
2018-01-14T11:35:42.403Z,17.40
2018-01-14T11:38:09.908Z,18.17
2018-01-14T11:40:37.406Z,16.33
2018-01-14T11:43:04.865Z,17.43
2018-01-14T11:45:32.580Z,17.60
2018-01-14T11:48:00.080Z,17.23
2018-01-14T11:50:27.606Z,17.67
2018-01-14T11:52:55.080Z,17.90
2018-01-14T11:55:22.807Z,16.47
2018-01-14T11:57:50.299Z,18.23
2018-01-14T12:00:18.179Z,17.40
2018-01-14T12:02:45.683Z,17.73
2018-01-14T12:05:13.151Z,17.27
2018-01-14T12:07:40.658Z,17.60
2018-01-14T12:10:08.174Z,16.60
2018-01-14T12:12:35.697Z,16.60
2018-01-14T12:15:03.178Z,16.73
2018-01-14T12:17:30.899Z,18.13
2018-01-14T12:19:58.407Z,16.90
2018-01-14T12:22:25.973Z,19.33
2018-01-14T12:24:53.507Z,17.83
2018-01-14T12:27:21.014Z,16.57
2018-01-14T12:30:02.620Z,17.60
2018-01-14T12:32:41.867Z,17.20
2018-01-14T12:35:09.376Z,17.63
2018-01-14T12:37:36.888Z,17.63
2018-01-14T12:40:04.350Z,17.73
2018-01-14T12:42:31.918Z,16.57
2018-01-14T12:44:59.691Z,16.63
2018-01-14T12:47:27.207Z,18.10
2018-01-14T12:49:54.722Z,17.10
2018-01-14T12:52:22.280Z,17.23
2018-01-14T12:54:49.755Z,17.20
2018-01-14T12:57:17.265Z,17.03
2018-01-14T12:59:44.771Z,17.73
2018-01-14T13:02:12.319Z,16.23
2018-01-14T13:04:39.773Z,15.90
2018-01-14T13:07:07.661Z,17.27
2018-01-14T13:09:35.444Z,16.47
2018-01-14T13:12:02.938Z,16.57
2018-01-14T13:14:30.479Z,17.37
2018-01-14T13:16:58.332Z,15.43
2018-01-14T13:19:25.872Z,17.00
2018-01-14T13:21:53.461Z,17.20
2018-01-14T13:24:20.988Z,16.47
2018-01-14T13:26:48.479Z,16.80
2018-01-14T13:29:17.595Z,17.30
2018-01-14T13:31:45.174Z,16.47
2018-01-14T13:34:12.695Z,16.63
2018-01-14T13:36:40.199Z,16.27
2018-01-14T13:39:07.713Z,16.97
2018-01-14T13:41:35.286Z,16.17
2018-01-14T13:44:02.818Z,17.93
2018-01-14T13:46:30.356Z,17.50
2018-01-14T13:48:57.949Z,17.77
2018-01-14T13:51:33.790Z,17.27
2018-01-14T13:54:01.338Z,16.67
2018-01-14T13:56:28.846Z,16.67
2018-01-14T13:58:56.445Z,16.60
2018-01-14T14:01:23.939Z,17.70
2018-01-14T14:03:51.451Z,16.43
2018-01-14T14:06:18.918Z,17.43
2018-01-14T14:08:46.426Z,16.33
2018-01-14T14:11:13.929Z,15.80
2018-01-14T14:13:41.451Z,17.40
2018-01-14T14:16:08.946Z,16.67
2018-01-14T14:18:36.450Z,16.60
2018-01-14T14:21:03.946Z,17.27
2018-01-14T14:23:31.788Z,16.83
2018-01-14T14:25:59.304Z,17.90
2018-01-14T14:28:26.834Z,16.93
2018-01-14T14:30:54.334Z,17.37
2018-01-14T14:33:22.582Z,16.60
2018-01-14T14:35:50.282Z,18.07
2018-01-14T14:38:17.788Z,16.97
2018-01-14T14:40:45.262Z,18.00
2018-01-14T14:43:12.768Z,18.03
2018-01-14T14:45:40.487Z,16.83
2018-01-14T14:48:07.974Z,17.33
2018-01-14T14:50:35.462Z,17.87
2018-01-14T14:53:02.955Z,17.97
2018-01-14T14:55:30.435Z,16.97
2018-01-14T14:57:57.907Z,17.03
2018-01-14T15:00:25.428Z,17.37
2018-01-14T15:02:52.913Z,18.63
2018-01-14T15:05:20.397Z,18.33
2018-01-14T15:07:47.871Z,16.40
2018-01-14T15:10:15.591Z,17.37
2018-01-14T15:12:43.087Z,17.70
2018-01-14T15:15:10.611Z,17.23
2018-01-14T15:17:38.095Z,18.10
2018-01-14T15:20:05.661Z,18.10
2018-01-14T15:22:33.182Z,17.20
2018-01-14T15:25:00.718Z,18.30
2018-01-14T15:27:28.427Z,17.87
2018-01-14T15:29:55.920Z,17.73
2018-01-14T15:32:23.847Z,17.07
2018-01-14T15:34:51.367Z,16.47
2018-01-14T15:37:18.883Z,16.83
2018-01-14T15:39:46.685Z,17.57
2018-01-14T15:42:14.154Z,16.57
2018-01-14T15:44:41.642Z,18.60
2018-01-14T15:47:09.503Z,17.20
2018-01-14T15:49:37.018Z,17.63
2018-01-14T15:52:04.526Z,17.17
2018-01-14T15:54:32.027Z,17.27
2018-01-14T15:56:59.538Z,16.33
2018-01-14T15:59:27.056Z,17.13
2018-01-14T16:01:54.730Z,17.03
2018-01-14T16:04:22.715Z,17.97
2018-01-14T16:06:50.217Z,17.53
2018-01-14T16:09:17.711Z,18.60
2018-01-14T16:11:45.234Z,18.33
2018-01-14T16:14:12.698Z,16.77
2018-01-14T16:16:40.186Z,17.67
2018-01-14T16:19:07.741Z,18.33
2018-01-14T16:21:36.424Z,17.10
2018-01-14T16:24:03.938Z,16.43
2018-01-14T16:26:31.455Z,17.37
2018-01-14T16:28:59.146Z,18.07
2018-01-14T16:31:26.642Z,17.50
2018-01-14T16:33:54.142Z,17.90
2018-01-14T16:36:21.675Z,20.07
2018-01-14T16:38:49.151Z,18.37
2018-01-14T16:41:16.643Z,18.53
2018-01-14T16:43:44.616Z,18.60
2018-01-14T16:46:12.160Z,17.27
2018-01-14T16:48:39.715Z,17.80
2018-01-14T16:51:07.267Z,18.53
2018-01-14T16:53:34.727Z,17.53
2018-01-14T16:56:02.239Z,17.93
2018-01-14T16:58:29.942Z,17.17
2018-01-14T17:00:57.430Z,18.30
2018-01-14T17:03:24.903Z,17.80
2018-01-14T17:05:52.399Z,17.47
2018-01-14T17:08:19.882Z,18.00
2018-01-14T17:10:47.450Z,17.07
2018-01-14T17:13:14.924Z,17.33
2018-01-14T17:15:42.465Z,16.93
2018-01-14T17:18:09.994Z,17.70
2018-01-14T17:20:37.498Z,16.83
2018-01-14T17:23:04.990Z,16.63
2018-01-14T17:25:32.726Z,17.43
2018-01-14T17:28:00.640Z,16.70
2018-01-14T17:30:28.115Z,16.60
2018-01-14T17:32:55.607Z,17.03
2018-01-14T17:35:23.119Z,16.27
2018-01-14T17:37:50.707Z,17.20
2018-01-14T17:40:18.225Z,17.63
2018-01-14T17:42:46.030Z,17.20
2018-01-14T17:45:20.039Z,18.07
2018-01-14T17:47:47.562Z,17.17
2018-01-14T17:50:15.282Z,17.67
2018-01-14T17:52:42.836Z,17.30
2018-01-14T17:55:10.376Z,16.17
2018-01-14T17:57:38.091Z,19.10
2018-01-14T18:00:05.610Z,17.13
2018-01-14T18:02:33.095Z,16.20
2018-01-14T18:05:00.564Z,17.17
2018-01-14T18:07:28.087Z,17.30
2018-01-14T18:09:55.566Z,16.60
2018-01-14T18:12:23.108Z,16.97
2018-01-14T18:14:50.603Z,17.53
2018-01-14T18:17:26.819Z,17.33
2018-01-14T18:19:54.314Z,17.33
2018-01-14T18:22:21.836Z,17.17
2018-01-14T18:24:49.343Z,17.60
2018-01-14T18:27:16.887Z,16.40
2018-01-14T18:29:44.480Z,16.53
2018-01-14T18:32:11.898Z,16.23
2018-01-14T18:34:39.389Z,16.87
2018-01-14T18:37:06.879Z,17.17
2018-01-14T18:39:34.371Z,16.67
2018-01-14T18:42:02.087Z,18.47
2018-01-14T18:44:30.502Z,17.83
2018-01-14T18:46:58.434Z,16.47
2018-01-14T18:49:25.930Z,17.83
2018-01-14T18:51:56.954Z,18.17
2018-01-14T18:54:24.441Z,17.87
2018-01-14T18:56:51.969Z,18.47
2018-01-14T18:59:19.458Z,18.93
2018-01-14T19:01:47.364Z,18.80
2018-01-14T19:04:14.865Z,19.93
2018-01-14T19:06:42.402Z,19.27
2018-01-14T19:09:10.206Z,19.40
2018-01-14T19:11:37.726Z,20.17
2018-01-14T19:14:05.275Z,18.70
2018-01-14T19:16:32.850Z,19.70
2018-01-14T19:19:00.401Z,20.10
2018-01-14T19:21:27.911Z,20.10
2018-01-14T19:23:55.425Z,20.80
2018-01-14T19:26:23.194Z,20.27
2018-01-14T19:29:03.292Z,21.87
2018-01-14T19:31:45.733Z,20.33
2018-01-14T19:34:13.251Z,20.30
2018-01-14T19:36:40.803Z,20.30
2018-01-14T19:39:08.330Z,20.90
2018-01-14T19:41:35.798Z,20.60
2018-01-14T19:44:07.516Z,20.33
2018-01-14T19:46:34.999Z,20.03
2018-01-14T19:49:02.479Z,21.30
2018-01-14T19:51:29.950Z,20.40
2018-01-14T19:53:57.668Z,21.37
2018-01-14T19:56:25.158Z,20.47
2018-01-14T19:58:52.651Z,20.80
2018-01-14T20:01:20.122Z,20.80
2018-01-14T20:03:47.635Z,19.73
2018-01-14T20:06:15.106Z,20.73
2018-01-14T20:11:35.888Z,20.23
2018-01-14T20:14:03.549Z,20.93
2018-01-14T20:16:32.038Z,20.80
2018-01-14T20:18:59.532Z,21.60
2018-01-14T20:21:27.030Z,21.57
2018-01-14T20:23:54.511Z,21.53
2018-01-14T20:26:21.981Z,21.63
2018-01-14T20:28:49.463Z,20.87
2018-01-14T20:31:16.923Z,21.67
2018-01-14T20:33:44.400Z,21.53
2018-01-14T20:36:11.862Z,22.17
2018-01-14T20:38:39.391Z,20.97
2018-01-14T20:41:06.831Z,21.73
2018-01-14T20:43:34.324Z,21.53
2018-01-14T20:46:01.800Z,21.77
2018-01-14T20:48:29.284Z,20.73
2018-01-14T20:50:56.742Z,20.23
2018-01-14T20:53:24.227Z,20.93
2018-01-14T20:55:51.698Z,20.23
2018-01-14T20:58:19.178Z,21.17
2018-01-14T21:00:46.671Z,20.10
2018-01-14T21:03:14.138Z,23.07
2018-01-14T21:05:41.694Z,20.97
2018-01-14T21:08:09.162Z,21.83
2018-01-14T21:10:36.668Z,22.07
2018-01-14T21:13:04.126Z,23.03
2018-01-14T21:15:31.618Z,22.73
2018-01-14T21:17:59.083Z,22.33
2018-01-14T21:20:26.571Z,22.80
2018-01-14T21:22:54.038Z,22.93
2018-01-14T21:25:21.528Z,22.53
2018-01-14T21:27:49.000Z,22.23
2018-01-14T21:30:16.488Z,23.23
2018-01-14T21:32:43.957Z,22.83
2018-01-14T21:35:11.439Z,22.30
2018-01-14T21:37:38.945Z,22.17
2018-01-14T21:40:06.434Z,22.33
2018-01-14T21:42:33.898Z,22.27
2018-01-14T21:45:01.387Z,20.83
2018-01-14T21:47:28.843Z,21.47
2018-01-14T21:49:56.336Z,18.93
2018-01-14T21:52:23.807Z,18.30
2018-01-14T21:54:51.290Z,20.83
2018-01-14T21:57:18.754Z,18.77
2018-01-14T21:59:46.238Z,18.93
2018-01-14T22:02:13.714Z,18.73
2018-01-14T22:04:41.235Z,17.97
2018-01-14T22:07:08.702Z,17.30
2018-01-14T22:09:36.199Z,18.77
2018-01-14T22:12:03.672Z,18.57
2018-01-14T22:14:31.155Z,19.30
2018-01-14T22:16:58.623Z,19.07
2018-01-14T22:19:26.098Z,20.47
2018-01-14T22:21:53.607Z,19.43
2018-01-14T22:24:21.062Z,19.30
2018-01-14T22:26:48.548Z,19.73
2018-01-14T22:29:16.015Z,19.23
2018-01-14T22:31:43.592Z,19.60
2018-01-14T22:34:11.081Z,20.27
2018-01-14T22:36:38.567Z,19.93
2018-01-14T22:39:06.035Z,20.47
2018-01-14T22:41:33.495Z,19.43
2018-01-14T22:44:00.979Z,18.80
2018-01-14T22:46:28.439Z,18.90
2018-01-14T22:48:55.922Z,20.20
2018-01-14T22:51:23.392Z,19.67
2018-01-14T22:53:50.871Z,20.70
2018-01-14T22:56:18.404Z,20.30
2018-01-14T22:58:45.900Z,20.20
2018-01-14T23:01:13.360Z,19.17
2018-01-14T23:03:40.839Z,19.70
2018-01-14T23:06:08.299Z,20.27
2018-01-14T23:08:35.762Z,20.13
2018-01-14T23:11:03.252Z,18.97
2018-01-14T23:13:30.710Z,19.73
2018-01-14T23:15:58.194Z,20.07
2018-01-14T23:18:25.658Z,20.87
2018-01-14T23:20:53.191Z,19.83
2018-01-14T23:23:20.656Z,18.20
2018-01-14T23:25:48.157Z,19.23
2018-01-14T23:28:15.622Z,19.23
2018-01-14T23:30:43.269Z,18.73
2018-01-14T23:33:10.734Z,18.60
2018-01-14T23:35:38.190Z,18.33
2018-01-14T23:38:05.713Z,20.47
2018-01-14T23:40:33.197Z,19.03
2018-01-14T23:43:00.683Z,17.83
2018-01-14T23:45:28.151Z,18.37
2018-01-14T23:47:55.631Z,18.00
2018-01-14T23:50:23.094Z,18.63
2018-01-14T23:52:50.574Z,18.50
2018-01-14T23:55:18.039Z,18.77
2018-01-14T23:57:45.541Z,18.57
